Portada
METAR-TAF:

METAR-TAF

Aeroports :

Bahrain, Bahrain

Aeroport Internacional de Bahrain

latitud: 26-16N, longitud: 050-39E, altitud: 2 m

Observació

L'informe es va fer fa 30 minuts, a les 11:00 UTC
Vent 17 kt del Nord-Oest
Temperatura 22°C
Humitat 57%
Pressió 1014 hPa
Visibilitat: 7000 m

METAR: OBBI 201100Z 32017KT 7000 NSC 22/13 Q1014 NOSIG

Hora: 14:30 (11:30 UTC)

Pronòstic

L'informe es va fer fa 6 hores i 30 minuts, a les 05:00 UTC
Pronòstic vàlid del 20 a les 06 UTC al 21 a les 12 UTC
Vent 10 kt del Nord/Nord-Oest
Visibilitat: 7000 m

TAF: OBBI 200500Z 2006/2112 34010KT 7000 NSC

Observacions i pronòstics meteorològics de més de 4000 aeroports (METAR i TAF).

Les estacions disponibles són els punts grocs i vermells al mapa.

Posi el ratolí al punt desitjat per veure el nom de l'estació.

Feu clic per veure les observacions i els pronòstics meteorològics.

Per canviar el mapa: feu clic els botons verds amb una creu de color negre per apropar; al botó verd amb un guió per allunyar la imatge; o en les fletxes verdes per a mapes adjacents.


METAR-TAF: